createdAt,value
2017-09-14T00:00:37.445Z,98.22
2017-09-14T00:01:37.423Z,98.13
2017-09-14T00:02:37.401Z,98.13
2017-09-14T00:03:37.378Z,98.13
2017-09-14T00:04:37.354Z,98.13
2017-09-14T00:05:37.337Z,98.22
2017-09-14T00:06:37.318Z,98.13
2017-09-14T00:07:37.288Z,98.22
2017-09-14T00:08:37.270Z,98.13
2017-09-14T00:09:37.246Z,98.13
2017-09-14T00:10:37.221Z,98.22
2017-09-14T00:11:37.193Z,97.94
2017-09-14T00:12:37.173Z,98.13
2017-09-14T00:13:36.847Z,98.03
2017-09-14T00:14:37.136Z,98.13
2017-09-14T00:15:37.104Z,98.13
2017-09-14T00:16:37.080Z,98.03
2017-09-14T00:17:37.063Z,97.85
2017-09-14T00:18:37.038Z,98.03
2017-09-14T00:19:37.022Z,97.85
2017-09-14T00:20:36.997Z,98.03
2017-09-14T00:21:36.971Z,98.03
2017-09-14T00:22:36.947Z,97.75
2017-09-14T00:23:36.618Z,98.22
2017-09-14T00:24:36.902Z,98.22
2017-09-14T00:25:36.887Z,97.94
2017-09-14T00:26:36.852Z,98.03
2017-09-14T00:27:36.834Z,98.22
2017-09-14T00:28:36.809Z,98.51
2017-09-14T00:29:36.786Z,98.8
2017-09-14T00:30:36.963Z,98.8
2017-09-14T00:31:36.741Z,98.7
2017-09-14T00:32:36.718Z,98.51
2017-09-14T00:33:36.697Z,98.7
2017-09-14T00:34:36.673Z,98.7
2017-09-14T00:35:36.649Z,98.51
2017-09-14T00:36:36.627Z,98.7
2017-09-14T00:37:36.605Z,98.51
2017-09-14T00:38:36.275Z,98.8
2017-09-14T00:39:36.568Z,98.7
2017-09-14T00:40:36.537Z,98.51
2017-09-14T00:41:36.514Z,98.7
2017-09-14T00:42:36.488Z,98.32
2017-09-14T00:43:36.473Z,98.32
2017-09-14T00:44:36.442Z,98.32
2017-09-14T00:45:36.421Z,98.13
2017-09-14T00:46:36.403Z,98.13
2017-09-14T00:47:36.378Z,97.94
2017-09-14T00:48:36.357Z,97.85
2017-09-14T00:49:36.330Z,97.85
2017-09-14T00:50:36.312Z,97.66
2017-09-14T00:51:36.296Z,98.22
2017-09-14T00:52:36.268Z,98.13
2017-09-14T00:53:36.240Z,97.85
2017-09-14T00:54:36.218Z,97.94
2017-09-14T00:55:36.194Z,97.85
2017-09-14T00:56:36.173Z,97.75
2017-09-14T00:57:36.154Z,97.85
2017-09-14T00:58:36.129Z,97.75
2017-09-14T00:59:36.105Z,98.32
2017-09-14T01:00:36.080Z,98.03
2017-09-14T01:01:36.059Z,98.13
2017-09-14T01:02:36.038Z,97.94
2017-09-14T01:03:36.015Z,97.85
2017-09-14T01:04:35.993Z,98.03
2017-09-14T01:05:35.968Z,97.94
2017-09-14T01:06:35.945Z,98.42
2017-09-14T01:07:35.924Z,98.03
2017-09-14T01:08:35.901Z,98.03
2017-09-14T01:09:35.879Z,97.94
2017-09-14T01:10:35.855Z,98.03
2017-09-14T01:11:35.834Z,97.94
2017-09-14T01:12:35.812Z,97.94
2017-09-14T01:13:35.790Z,97.94
2017-09-14T01:14:35.767Z,97.85
2017-09-14T01:15:35.740Z,97.66
2017-09-14T01:16:35.717Z,97.75
2017-09-14T01:17:35.701Z,97.94
2017-09-14T01:18:35.685Z,97.85
2017-09-14T01:19:35.655Z,97.85
2017-09-14T01:20:35.630Z,97.94
2017-09-14T01:21:35.637Z,98.13
2017-09-14T01:22:35.582Z,97.94
2017-09-14T01:23:35.560Z,97.94
2017-09-14T01:24:35.538Z,97.85
2017-09-14T01:25:35.512Z,98.13
2017-09-14T01:26:35.491Z,98.03
2017-09-14T01:27:35.472Z,98.51
2017-09-14T01:28:35.460Z,98.51
2017-09-14T01:29:35.425Z,98.13
2017-09-14T01:30:35.437Z,98.03
2017-09-14T01:31:35.379Z,98.8
2017-09-14T01:32:35.360Z,98.9
2017-09-14T01:33:35.332Z,98.9
2017-09-14T01:34:35.315Z,98.9
2017-09-14T01:35:35.296Z,98.61
2017-09-14T01:36:35.267Z,98.8
2017-09-14T01:37:35.296Z,98.8
2017-09-14T01:38:35.218Z,98.8
2017-09-14T01:39:35.197Z,98.9
2017-09-14T01:40:35.175Z,98.61
2017-09-14T01:41:35.155Z,98.42
2017-09-14T01:42:35.134Z,98.32
2017-09-14T01:43:35.105Z,98.32
2017-09-14T01:44:35.085Z,98.61
2017-09-14T01:45:35.062Z,98.7
2017-09-14T01:46:35.041Z,98.32
2017-09-14T01:47:35.016Z,98.42
2017-09-14T01:48:35.003Z,98.51
2017-09-14T01:49:34.970Z,98.42
2017-09-14T01:50:34.946Z,98.42
2017-09-14T01:51:34.931Z,98.51
2017-09-14T01:52:34.909Z,98.42
2017-09-14T01:53:34.572Z,98.51
2017-09-14T01:54:34.855Z,98.42
2017-09-14T01:55:34.833Z,98.61
2017-09-14T01:56:34.818Z,98.51
2017-09-14T01:57:34.787Z,98.61
2017-09-14T01:58:34.762Z,98.7
2017-09-14T01:59:34.743Z,98.61
2017-09-14T02:00:34.722Z,98.9
2017-09-14T02:01:34.715Z,98.42
2017-09-14T02:02:34.673Z,98.7
2017-09-14T02:03:34.652Z,98.61
2017-09-14T02:04:34.632Z,98.61
2017-09-14T02:05:34.605Z,98.99
2017-09-14T02:06:34.586Z,98.51
2017-09-14T02:07:34.561Z,98.42
2017-09-14T02:08:34.539Z,98.22
2017-09-14T02:09:34.521Z,98.51
2017-09-14T02:10:34.491Z,98.7
2017-09-14T02:11:34.471Z,98.51
2017-09-14T02:12:34.449Z,98.7
2017-09-14T02:13:34.423Z,98.8
2017-09-14T02:14:34.398Z,98.9
2017-09-14T02:15:34.379Z,98.32
2017-09-14T02:16:34.358Z,98.42
2017-09-14T02:17:34.331Z,98.75
2017-09-14T02:18:34.312Z,98.61
2017-09-14T02:19:34.292Z,98.61
2017-09-14T02:20:34.261Z,99.32
2017-09-14T02:21:34.240Z,98.85
2017-09-14T02:22:34.223Z,99.04
2017-09-14T02:23:34.198Z,99.04
2017-09-14T02:24:34.222Z,99.22
2017-09-14T02:25:34.151Z,98.94
2017-09-14T02:26:34.176Z,98.85
2017-09-14T02:27:34.105Z,99.51
2017-09-14T02:28:34.081Z,99.22
2017-09-14T02:29:34.060Z,99.22
2017-09-14T02:30:34.038Z,99.22
2017-09-14T02:31:34.010Z,98.94
2017-09-14T02:32:33.986Z,99.04
2017-09-14T02:33:33.974Z,99.32
2017-09-14T02:34:33.950Z,99.04
2017-09-14T02:35:33.923Z,98.85
2017-09-14T02:36:33.905Z,99.32
2017-09-14T02:37:33.880Z,99.04
2017-09-14T02:38:33.857Z,99.13
2017-09-14T02:39:33.838Z,98.94
2017-09-14T02:40:33.806Z,99.22
2017-09-14T02:41:33.479Z,99.04
2017-09-14T02:42:33.761Z,99.22
2017-09-14T02:43:33.779Z,99.22
2017-09-14T02:44:33.716Z,99.32
2017-09-14T02:45:33.693Z,98.85
2017-09-14T02:46:33.671Z,98.85
2017-09-14T02:47:33.646Z,98.85
2017-09-14T02:48:33.625Z,98.85
2017-09-14T02:49:33.608Z,98.85
2017-09-14T02:50:33.589Z,99.32
2017-09-14T02:51:33.251Z,99.32
2017-09-14T02:52:33.534Z,99.32
2017-09-14T02:53:33.509Z,98.85
2017-09-14T02:54:33.487Z,98.85
2017-09-14T02:55:33.471Z,99.32
2017-09-14T02:56:33.441Z,99.41
2017-09-14T02:57:33.416Z,99.32
2017-09-14T02:58:33.091Z,98.75
2017-09-14T02:59:33.376Z,98.85
2017-09-14T03:00:33.349Z,99.13
2017-09-14T03:01:33.323Z,99.04
2017-09-14T03:02:33.315Z,99.13
2017-09-14T03:03:33.287Z,99.04
2017-09-14T03:04:33.260Z,99.08
2017-09-14T03:05:33.235Z,99.04
2017-09-14T03:06:33.215Z,99.22
2017-09-14T03:07:33.186Z,98.85
2017-09-14T03:08:33.170Z,99.04
2017-09-14T03:09:33.143Z,99.04
2017-09-14T03:10:33.124Z,98.75
2017-09-14T03:11:33.101Z,99.04
2017-09-14T03:12:33.076Z,98.94
2017-09-14T03:13:33.061Z,99.51
2017-09-14T03:14:33.033Z,99.04
2017-09-14T03:15:33.012Z,99.41
2017-09-14T03:16:32.983Z,98.75
2017-09-14T03:17:32.960Z,98.85
2017-09-14T03:18:32.938Z,99.7
2017-09-14T03:19:32.913Z,98.75
2017-09-14T03:20:32.583Z,98.85
2017-09-14T03:21:32.871Z,98.85
2017-09-14T03:22:32.843Z,99.22
2017-09-14T03:23:32.826Z,99.04
2017-09-14T03:24:32.801Z,99.13
2017-09-14T03:25:32.777Z,98.94
2017-09-14T03:26:32.757Z,98.75
2017-09-14T03:27:32.738Z,98.75
2017-09-14T03:28:32.723Z,99.22
2017-09-14T03:29:32.383Z,99.7
2017-09-14T03:30:32.666Z,99.7
2017-09-14T03:31:32.641Z,99.51
2017-09-14T03:32:32.619Z,99.8
2017-09-14T03:33:32.592Z,99.41
2017-09-14T03:34:32.579Z,98.85
2017-09-14T03:35:32.548Z,99.22
2017-09-14T03:36:32.529Z,99.04
2017-09-14T03:37:32.501Z,98.85
2017-09-14T03:38:32.476Z,99.6
2017-09-14T03:39:32.464Z,99.04
2017-09-14T03:40:32.437Z,98.85
2017-09-14T03:41:32.410Z,98.85
2017-09-14T03:42:32.390Z,99.41
2017-09-14T03:43:32.366Z,99.13
2017-09-14T03:44:32.351Z,98.8
2017-09-14T03:45:32.326Z,98.85
2017-09-14T03:46:32.299Z,99.08
2017-09-14T03:47:32.276Z,98.85
2017-09-14T03:48:32.287Z,98.85
2017-09-14T03:49:32.229Z,99.22
2017-09-14T03:50:32.214Z,99.22
2017-09-14T03:51:32.184Z,99.08
2017-09-14T03:52:32.161Z,99.27
2017-09-14T03:53:32.140Z,99.08
2017-09-14T03:54:32.115Z,99.13
2017-09-14T03:55:32.097Z,98.9
2017-09-14T03:56:32.119Z,99.08
2017-09-14T03:57:32.045Z,98.9
2017-09-14T03:58:32.023Z,99.27
2017-09-14T03:59:32.003Z,99.08
2017-09-14T04:00:32.038Z,99.27
2017-09-14T04:01:31.958Z,98.99
2017-09-14T04:02:31.944Z,98.99
2017-09-14T04:03:31.602Z,99.18
2017-09-14T04:04:31.944Z,98.8
2017-09-14T04:05:31.868Z,98.8
2017-09-14T04:06:31.864Z,98.61
2017-09-14T04:07:31.813Z,98.7
2017-09-14T04:08:31.525Z,98.51
2017-09-14T04:09:31.769Z,98.7
2017-09-14T04:10:31.749Z,98.61
2017-09-14T04:11:31.732Z,98.9
2017-09-14T04:12:31.705Z,98.7
2017-09-14T04:13:31.685Z,98.8
2017-09-14T04:14:31.669Z,98.7
2017-09-14T04:15:31.637Z,98.9
2017-09-14T04:16:31.619Z,98.8
2017-09-14T04:17:31.591Z,98.9
2017-09-14T04:18:31.572Z,98.32
2017-09-14T04:19:31.598Z,98.61
2017-09-14T04:20:31.523Z,98.7
2017-09-14T04:21:31.499Z,98.8
2017-09-14T04:22:31.480Z,98.42
2017-09-14T04:23:31.453Z,98.61
2017-09-14T04:24:31.436Z,98.8
2017-09-14T04:25:31.466Z,98.9
2017-09-14T04:26:31.076Z,98.99
2017-09-14T04:27:31.364Z,98.94
2017-09-14T04:28:31.337Z,99.08
2017-09-14T04:29:31.322Z,99.04
2017-09-14T04:30:31.293Z,99.04
2017-09-14T04:31:31.278Z,99.27
2017-09-14T04:32:31.251Z,99.04
2017-09-14T04:33:31.225Z,98.85
2017-09-14T04:34:31.202Z,98.85
2017-09-14T04:35:30.981Z,98.85
2017-09-14T04:36:31.161Z,98.85
2017-09-14T04:37:31.138Z,99.66
2017-09-14T04:38:31.114Z,99.04
2017-09-14T04:39:31.089Z,99.8
2017-09-14T04:40:31.067Z,98.85
2017-09-14T04:41:31.046Z,99.51
2017-09-14T04:42:30.725Z,99.8
2017-09-14T04:43:30.999Z,99.6
2017-09-14T04:44:30.669Z,99.13
2017-09-14T04:45:30.956Z,99.41
2017-09-14T04:46:30.929Z,99.6
2017-09-14T04:47:30.912Z,99.22
2017-09-14T04:48:30.891Z,98.85
2017-09-14T04:49:30.551Z,98.85
2017-09-14T04:50:30.836Z,99.32
2017-09-14T04:51:30.506Z,99.51
2017-09-14T04:52:30.792Z,99.04
2017-09-14T04:53:30.462Z,99.6
2017-09-14T04:54:30.753Z,99.6
2017-09-14T04:55:30.722Z,99.22
2017-09-14T04:56:30.753Z,99.51
2017-09-14T04:57:30.676Z,99.22
2017-09-14T04:58:30.653Z,99.41
2017-09-14T04:59:30.641Z,99.6
2017-09-14T05:00:30.612Z,99.6
2017-09-14T05:01:30.585Z,99.6
2017-09-14T05:02:30.564Z,99.22
2017-09-14T05:03:30.586Z,99.41
2017-09-14T05:04:30.512Z,99.22
2017-09-14T05:05:30.494Z,99.41
2017-09-14T05:06:30.469Z,99.32
2017-09-14T05:07:30.448Z,99.6
2017-09-14T05:08:30.422Z,99.6
2017-09-14T05:09:30.407Z,99.7
2017-09-14T05:10:30.376Z,99.22
2017-09-14T05:11:30.357Z,99.99
2017-09-14T05:12:30.331Z,99.99
2017-09-14T05:13:30.319Z,99.22
2017-09-14T05:14:30.339Z,99.7
2017-09-14T05:15:30.265Z,98.85
2017-09-14T05:16:30.241Z,99.6
2017-09-14T05:17:30.224Z,99.04
2017-09-14T05:18:30.192Z,99.22
2017-09-14T05:19:30.170Z,99.04
2017-09-14T05:20:30.149Z,99.22
2017-09-14T05:21:30.123Z,99.13
2017-09-14T05:22:30.110Z,99.99
2017-09-14T05:23:30.084Z,99.04
2017-09-14T05:24:30.064Z,99.41
2017-09-14T05:25:30.038Z,99.41
2017-09-14T05:26:30.015Z,99.56
2017-09-14T05:27:29.995Z,99.8
2017-09-14T05:28:29.976Z,99.41
2017-09-14T05:29:29.972Z,99.22
2017-09-14T05:30:29.930Z,99.27
2017-09-14T05:31:29.904Z,99.56
2017-09-14T05:32:29.879Z,99.18
2017-09-14T05:33:29.852Z,99.66
2017-09-14T05:34:29.835Z,99.37
2017-09-14T05:35:29.808Z,99.46
2017-09-14T05:36:29.788Z,99.46
2017-09-14T05:37:29.768Z,99.66
2017-09-14T05:38:29.432Z,99.18
2017-09-14T05:39:29.717Z,98.9
2017-09-14T05:40:29.694Z,99.08
2017-09-14T05:41:29.672Z,98.8
2017-09-14T05:42:29.655Z,98.94
2017-09-14T05:43:29.628Z,99.08
2017-09-14T05:44:29.603Z,99.23
2017-09-14T05:45:29.583Z,98.56
2017-09-14T05:46:29.560Z,98.85
2017-09-14T05:47:29.539Z,98.37
2017-09-14T05:48:29.517Z,98.66
2017-09-14T05:49:29.492Z,98.27
2017-09-14T05:50:29.470Z,98.32
2017-09-14T05:51:29.452Z,98.9
2017-09-14T05:52:29.429Z,98.8
2017-09-14T05:53:29.405Z,97.94
2017-09-14T05:54:29.379Z,98.13
2017-09-14T05:55:29.359Z,98.32
2017-09-14T05:56:29.334Z,97.94
2017-09-14T05:57:29.314Z,98.23
2017-09-14T05:58:29.296Z,98.52
2017-09-14T05:59:29.270Z,98.37
2017-09-14T06:00:29.250Z,98.37
2017-09-14T06:01:29.224Z,98.37
2017-09-14T06:02:29.215Z,97.8
2017-09-14T06:03:29.188Z,97.89
2017-09-14T06:04:29.157Z,98.08
2017-09-14T06:05:29.169Z,97.89
2017-09-14T06:06:29.116Z,98.18
2017-09-14T06:07:29.091Z,97.89
2017-09-14T06:08:29.069Z,98.18
2017-09-14T06:09:29.047Z,97.99
2017-09-14T06:10:29.023Z,97.99
2017-09-14T06:11:29.003Z,97.89
2017-09-14T06:12:28.982Z,98.18
2017-09-14T06:13:29.011Z,98.18
2017-09-14T06:14:28.935Z,98.18
2017-09-14T06:15:28.910Z,98.18
2017-09-14T06:16:28.894Z,98.18
2017-09-14T06:17:28.866Z,98.18
2017-09-14T06:18:28.541Z,98.08
2017-09-14T06:19:28.827Z,98.18
2017-09-14T06:20:28.803Z,98.08
2017-09-14T06:21:28.780Z,98.18
2017-09-14T06:22:28.768Z,98.18
2017-09-14T06:23:28.738Z,98.08
2017-09-14T06:24:28.708Z,97.8
2017-09-14T06:25:28.687Z,97.89
2017-09-14T06:26:28.666Z,97.89
2017-09-14T06:27:28.648Z,97.71
2017-09-14T06:28:28.627Z,98.08
2017-09-14T06:29:28.612Z,97.71
2017-09-14T06:30:28.584Z,97.89
2017-09-14T06:31:28.608Z,97.89
2017-09-14T06:32:28.538Z,97.71
2017-09-14T06:33:28.528Z,97.71
2017-09-14T06:34:28.489Z,97.66
2017-09-14T06:35:28.467Z,97.37
2017-09-14T06:36:28.446Z,97.27
2017-09-14T06:37:28.422Z,97.66
2017-09-14T06:38:28.401Z,97.47
2017-09-14T06:39:28.378Z,97.47
2017-09-14T06:40:28.417Z,97.18
2017-09-14T06:41:28.335Z,97.08
2017-09-14T06:42:28.313Z,97.08
2017-09-14T06:43:28.288Z,97.18
2017-09-14T06:44:28.292Z,97.85
2017-09-14T06:45:28.250Z,97.08
2017-09-14T06:46:28.228Z,97.18
2017-09-14T06:47:28.202Z,97.18
2017-09-14T06:48:28.187Z,96.7
2017-09-14T06:49:28.160Z,96.89
2017-09-14T06:50:28.139Z,97.27
2017-09-14T06:51:28.117Z,96.89
2017-09-14T06:52:28.093Z,97.08
2017-09-14T06:53:28.069Z,97.18
2017-09-14T06:54:28.050Z,97.08
2017-09-14T06:55:28.020Z,97.18
2017-09-14T06:56:27.698Z,97.18
2017-09-14T06:57:27.979Z,97.08
2017-09-14T06:58:28.009Z,97.18
2017-09-14T06:59:27.628Z,97.66
2017-09-14T07:00:27.920Z,97.47
2017-09-14T07:01:27.901Z,97.08
2017-09-14T07:02:27.870Z,97.27
2017-09-14T07:03:27.854Z,97.47
2017-09-14T07:04:27.835Z,97.47
2017-09-14T07:05:27.802Z,97.27
2017-09-14T07:06:27.789Z,96.98
2017-09-14T07:07:27.758Z,96.94
2017-09-14T07:08:27.743Z,96.7
2017-09-14T07:09:27.716Z,97.08
2017-09-14T07:10:27.695Z,97.18
2017-09-14T07:11:27.721Z,97.08
2017-09-14T07:12:27.654Z,97.08
2017-09-14T07:13:27.630Z,97.27
2017-09-14T07:14:27.622Z,96.75
2017-09-14T07:15:27.588Z,97.32
2017-09-14T07:16:27.567Z,96.75
2017-09-14T07:17:27.546Z,96.75
2017-09-14T07:18:27.516Z,96.84
2017-09-14T07:19:27.496Z,96.84
2017-09-14T07:20:27.474Z,96.8
2017-09-14T07:21:27.453Z,97.03
2017-09-14T07:22:27.431Z,97.08
2017-09-14T07:23:27.102Z,96.37
2017-09-14T07:24:27.383Z,96.98
2017-09-14T07:25:27.371Z,96.7
2017-09-14T07:26:27.344Z,96.7
2017-09-14T07:27:27.325Z,96.84
2017-09-14T07:28:27.295Z,96.7
2017-09-14T07:29:27.281Z,96.8
2017-09-14T07:30:27.258Z,96.22
2017-09-14T07:31:27.232Z,96.7
2017-09-14T07:32:27.206Z,96.7
2017-09-14T07:33:27.185Z,97.08
2017-09-14T07:34:27.163Z,97.18
2017-09-14T07:35:27.147Z,96.98
2017-09-14T07:36:27.125Z,96.98
2017-09-14T07:37:27.108Z,96.98
2017-09-14T07:38:27.080Z,97.66
2017-09-14T07:39:27.055Z,97.66
2017-09-14T07:40:26.735Z,97.18
2017-09-14T07:41:27.010Z,97.37
2017-09-14T07:42:26.997Z,97.27
2017-09-14T07:43:26.964Z,96.8
2017-09-14T07:44:26.951Z,97.8
2017-09-14T07:45:26.919Z,97.51
2017-09-14T07:46:26.900Z,97.22
2017-09-14T07:47:26.890Z,97.51
2017-09-14T07:48:26.855Z,97.71
2017-09-14T07:49:26.845Z,97.89
2017-09-14T07:50:26.808Z,97.71
2017-09-14T07:51:26.787Z,97.8
2017-09-14T07:52:26.784Z,97.46
2017-09-14T07:53:26.740Z,98.32
2017-09-14T07:54:26.411Z,98.32
2017-09-14T07:55:26.694Z,98.22
2017-09-14T07:56:26.677Z,98.7
2017-09-14T07:57:26.648Z,98.61
2017-09-14T07:58:26.630Z,98.7
2017-09-14T07:59:26.602Z,98.51
2017-09-14T08:00:26.582Z,98.42
2017-09-14T08:01:26.557Z,98.51
2017-09-14T08:02:26.538Z,98.08
2017-09-14T08:03:26.510Z,98.27
2017-09-14T08:04:26.489Z,98.56
2017-09-14T08:05:26.522Z,98.27
2017-09-14T08:06:26.444Z,98.18
2017-09-14T08:07:26.421Z,98.27
2017-09-14T08:08:26.397Z,98.27
2017-09-14T08:09:26.426Z,98.27
2017-09-14T08:10:26.354Z,98.46
2017-09-14T08:11:26.338Z,98.36
2017-09-14T08:12:26.307Z,98.46
2017-09-14T08:13:25.983Z,98.27
2017-09-14T08:14:26.269Z,98.51
2017-09-14T08:15:25.949Z,98.18
2017-09-14T08:16:26.217Z,98.18
2017-09-14T08:17:26.200Z,98.32
2017-09-14T08:18:26.176Z,98.27
2017-09-14T08:19:26.151Z,97.94
2017-09-14T08:20:26.136Z,98.61
2017-09-14T08:21:26.108Z,98.51
2017-09-14T08:22:25.780Z,98.51
2017-09-14T08:23:26.059Z,98.7
2017-09-14T08:24:26.039Z,98.42
2017-09-14T08:25:26.014Z,98.42
2017-09-14T08:26:26.004Z,98.51
2017-09-14T08:27:25.969Z,98.32
2017-09-14T08:28:25.946Z,98.51
2017-09-14T08:29:25.632Z,98.51
2017-09-14T08:30:25.595Z,98.51
2017-09-14T08:31:25.884Z,98.51
2017-09-14T08:32:25.859Z,98.32
2017-09-14T08:33:25.840Z,98.32
2017-09-14T08:34:25.820Z,98.51
2017-09-14T08:35:25.793Z,98.22
2017-09-14T08:36:25.763Z,98.51
2017-09-14T08:37:25.745Z,98.7
2017-09-14T08:38:25.727Z,98.32
2017-09-14T08:39:25.698Z,98.8
2017-09-14T08:40:25.677Z,98.61
2017-09-14T08:41:25.664Z,98.7
2017-09-14T08:42:25.631Z,98.7
2017-09-14T08:43:25.613Z,98.51
2017-09-14T08:44:25.591Z,98.22
2017-09-14T08:45:25.257Z,98.22
2017-09-14T08:46:25.542Z,98.32
2017-09-14T08:47:25.518Z,97.94
2017-09-14T08:48:25.499Z,98.22
2017-09-14T08:49:25.476Z,98.32
2017-09-14T08:50:25.458Z,98.13
2017-09-14T08:51:25.426Z,97.94
2017-09-14T08:52:25.102Z,98.32
2017-09-14T08:53:25.385Z,98.13
2017-09-14T08:54:25.361Z,98.13
2017-09-14T08:55:25.345Z,98.22
2017-09-14T08:56:25.318Z,98.32
2017-09-14T08:57:24.997Z,98.22
2017-09-14T08:58:25.271Z,98.22
2017-09-14T08:59:24.950Z,98.03
2017-09-14T09:00:25.233Z,98.03
2017-09-14T09:01:25.207Z,98.03
2017-09-14T09:02:25.184Z,98.03
2017-09-14T09:03:25.163Z,98.7
2017-09-14T09:04:25.138Z,98.61
2017-09-14T09:05:25.117Z,98.61
2017-09-14T09:06:25.093Z,98.61
2017-09-14T09:07:25.100Z,98.7
2017-09-14T09:08:25.048Z,98.32
2017-09-14T09:09:25.038Z,98.61
2017-09-14T09:10:25.003Z,98.61
2017-09-14T09:11:24.980Z,98.7
2017-09-14T09:12:24.962Z,98.7
2017-09-14T09:13:24.937Z,98.7
2017-09-14T09:14:24.920Z,98.42
2017-09-14T09:15:24.586Z,98.51
2017-09-14T09:16:24.867Z,98.51
2017-09-14T09:17:24.852Z,98.13
2017-09-14T09:18:24.515Z,98.61
2017-09-14T09:19:24.798Z,98.22
2017-09-14T09:20:24.782Z,98.13
2017-09-14T09:21:24.751Z,98.22
2017-09-14T09:22:24.428Z,98.51
2017-09-14T09:23:24.707Z,98.13
2017-09-14T09:24:24.687Z,99.08
2017-09-14T09:25:24.680Z,98.18
2017-09-14T09:26:24.635Z,98.65
2017-09-14T09:27:24.623Z,98.65
2017-09-14T09:28:24.597Z,99.22
2017-09-14T09:29:24.574Z,98.85
2017-09-14T09:30:24.554Z,98.94
2017-09-14T09:31:24.227Z,99.04
2017-09-14T09:32:24.505Z,98.85
2017-09-14T09:33:24.492Z,98.85
2017-09-14T09:34:24.462Z,99.08
2017-09-14T09:35:24.436Z,99.04
2017-09-14T09:36:24.413Z,98.75
2017-09-14T09:37:24.394Z,98.7
2017-09-14T09:38:24.368Z,98.9
2017-09-14T09:39:24.353Z,98.8
2017-09-14T09:40:24.330Z,98.99
2017-09-14T09:41:24.301Z,99.18
2017-09-14T09:42:24.282Z,98.22
2017-09-14T09:43:24.257Z,98.32
2017-09-14T09:44:24.233Z,98.42
2017-09-14T09:45:24.212Z,98.32
2017-09-14T09:46:24.193Z,98.22
2017-09-14T09:47:24.166Z,98.32
2017-09-14T09:48:24.140Z,98.9
2017-09-14T09:49:24.850Z,98.42
2017-09-14T09:50:24.827Z,98.03
2017-09-14T09:51:24.652Z,98.37
2017-09-14T09:52:24.628Z,98.18
2017-09-14T09:53:24.825Z,97.47
2017-09-14T09:54:24.682Z,97.42
2017-09-14T09:55:24.430Z,97.28
2017-09-14T09:56:24.394Z,96.8
2017-09-14T09:57:24.611Z,96.8
2017-09-14T09:58:24.363Z,96.7
2017-09-14T09:59:24.520Z,96.51
2017-09-14T10:00:24.551Z,96.56
2017-09-14T10:01:24.401Z,96.56
2017-09-14T10:02:23.903Z,96.13
2017-09-14T10:03:24.209Z,96.22
2017-09-14T10:04:23.799Z,96.03
2017-09-14T10:05:23.778Z,95.75
2017-09-14T10:06:23.755Z,95.84
2017-09-14T10:07:23.737Z,95.65
2017-09-14T10:08:23.713Z,95.17
2017-09-14T10:09:23.691Z,95.65
2017-09-14T10:10:23.677Z,94.98
2017-09-14T10:11:23.656Z,94.89
2017-09-14T10:12:23.329Z,94.98
2017-09-14T10:13:23.634Z,95.27
2017-09-14T10:14:23.592Z,94.89
2017-09-14T10:15:23.266Z,94.98
2017-09-14T10:16:23.556Z,95.17
2017-09-14T10:17:23.531Z,95.27
2017-09-14T10:18:23.205Z,95.17
2017-09-14T10:19:23.494Z,95.32
2017-09-14T10:20:23.464Z,95.12
2017-09-14T10:21:23.138Z,95.12
2017-09-14T10:22:23.431Z,95.12
2017-09-14T10:23:23.406Z,95.03
2017-09-14T10:24:23.384Z,95.03
2017-09-14T10:25:23.360Z,95.22
2017-09-14T10:26:23.037Z,94.84
2017-09-14T10:27:23.325Z,95.12
2017-09-14T10:28:23.299Z,94.93
2017-09-14T10:29:23.277Z,94.65
2017-09-14T10:30:23.254Z,94.84
2017-09-14T10:31:23.234Z,94.84
2017-09-14T10:32:23.219Z,94.74
2017-09-14T10:33:22.894Z,95.03
2017-09-14T10:34:23.176Z,95.12
2017-09-14T10:35:23.151Z,94.74
2017-09-14T10:36:23.130Z,95.03
2017-09-14T10:37:23.113Z,94.74
2017-09-14T10:38:23.087Z,94.46
2017-09-14T10:39:23.061Z,94.46
2017-09-14T10:40:23.041Z,94.84
2017-09-14T10:41:23.018Z,94.84
2017-09-14T10:42:22.999Z,95.17
2017-09-14T10:43:22.980Z,94.31
2017-09-14T10:44:22.975Z,94.12
2017-09-14T10:45:22.932Z,94.21
2017-09-14T10:46:22.606Z,93.35
2017-09-14T10:47:22.891Z,93.31
2017-09-14T10:48:22.870Z,93.31
2017-09-14T10:49:22.854Z,93.31
2017-09-14T10:50:22.831Z,93.5
2017-09-14T10:51:22.817Z,93.6
2017-09-14T10:52:22.793Z,93.5
2017-09-14T10:53:22.771Z,93.4
2017-09-14T10:54:22.758Z,93.4
2017-09-14T10:55:22.723Z,93.45
2017-09-14T10:56:22.707Z,93.26
2017-09-14T10:57:22.424Z,93.26
2017-09-14T10:58:22.655Z,93.35
2017-09-14T10:59:22.644Z,93.55
2017-09-14T11:00:22.680Z,93.45
2017-09-14T11:01:22.596Z,93.35
2017-09-14T11:02:22.578Z,93.35
2017-09-14T11:03:22.547Z,93.35
2017-09-14T11:04:22.531Z,92.97
2017-09-14T11:05:22.199Z,92.97
2017-09-14T11:06:22.482Z,92.69
2017-09-14T11:07:22.462Z,92.59
2017-09-14T11:08:22.450Z,92.69
2017-09-14T11:09:22.415Z,92.63
2017-09-14T11:10:22.102Z,92.63
2017-09-14T11:11:22.373Z,92.35
2017-09-14T11:12:22.364Z,92.35
2017-09-14T11:13:22.337Z,92.54
2017-09-14T11:14:22.317Z,92.16
2017-09-14T11:15:22.293Z,92.25
2017-09-14T11:16:21.969Z,91.77
2017-09-14T11:17:22.256Z,91.87
2017-09-14T11:18:22.234Z,91.82
2017-09-14T11:19:21.906Z,91.72
2017-09-14T11:20:22.190Z,91.87
2017-09-14T11:21:22.167Z,91.58
2017-09-14T11:22:21.844Z,91.63
2017-09-14T11:23:22.122Z,91.05
2017-09-14T11:24:22.103Z,91.92
2017-09-14T11:25:22.089Z,91.15
2017-09-14T11:26:21.765Z,91.15
2017-09-14T11:27:21.754Z,91.01
2017-09-14T11:28:22.019Z,91.3
2017-09-14T11:29:21.694Z,91.05
2017-09-14T11:30:21.978Z,90.67
2017-09-14T11:31:21.955Z,90.86
2017-09-14T11:32:21.629Z,90.77
2017-09-14T11:33:21.611Z,90.58
2017-09-14T11:34:21.900Z,90.19
2017-09-14T11:35:21.598Z,90.44
2017-09-14T11:36:21.550Z,90.39
2017-09-14T11:37:21.841Z,90.72
2017-09-14T11:38:21.804Z,90.19
2017-09-14T11:39:21.479Z,90.19
2017-09-14T11:40:21.773Z,90.09
2017-09-14T11:41:21.745Z,90.39
2017-09-14T11:42:21.727Z,90.15
2017-09-14T11:43:21.699Z,90.34
2017-09-14T11:44:21.686Z,90.53
2017-09-14T11:45:21.658Z,90.44
2017-09-14T11:46:21.337Z,89.76
2017-09-14T11:47:21.619Z,90.24
2017-09-14T11:48:21.599Z,89.86
2017-09-14T11:49:21.583Z,89.52
2017-09-14T11:50:21.550Z,89.81
2017-09-14T11:51:21.536Z,89.33
2017-09-14T11:52:21.211Z,89.23
2017-09-14T11:53:21.500Z,89.33
2017-09-14T11:54:21.477Z,89.43
2017-09-14T11:55:21.459Z,89.14
2017-09-14T11:56:21.444Z,89.33
2017-09-14T11:57:21.408Z,89.33
2017-09-14T11:58:21.413Z,88.56
2017-09-14T11:59:21.369Z,88.56
2017-09-14T12:00:21.346Z,88.66
2017-09-14T12:01:21.327Z,88.56
2017-09-14T12:02:21.308Z,88.95
2017-09-14T12:03:21.283Z,88.85
2017-09-14T12:04:21.270Z,88.66
2017-09-14T12:05:21.245Z,89.29
2017-09-14T12:06:21.224Z,89
2017-09-14T12:07:21.206Z,88.9
2017-09-14T12:08:21.184Z,89.48
2017-09-14T12:09:21.157Z,89.38
2017-09-14T12:10:21.144Z,89.86
2017-09-14T12:11:21.152Z,90.05
2017-09-14T12:12:21.108Z,90.44
2017-09-14T12:13:21.074Z,90.34
2017-09-14T12:14:21.054Z,90.77
2017-09-14T12:15:21.033Z,90.58
2017-09-14T12:16:21.010Z,90.53
2017-09-14T12:17:20.992Z,90.58
2017-09-14T12:18:20.979Z,90.67
2017-09-14T12:19:20.954Z,90.29
2017-09-14T12:20:20.927Z,90
2017-09-14T12:21:20.915Z,90.19
2017-09-14T12:22:20.892Z,89.81
2017-09-14T12:23:20.916Z,89.62
2017-09-14T12:24:20.844Z,89.81
2017-09-14T12:25:20.825Z,89.33
2017-09-14T12:26:20.804Z,89.33
2017-09-14T12:27:20.785Z,89.28
2017-09-14T12:28:20.775Z,88.99
2017-09-14T12:29:20.440Z,88.99
2017-09-14T12:30:20.728Z,88.7
2017-09-14T12:31:20.705Z,88.61
2017-09-14T12:32:20.681Z,88.51
2017-09-14T12:33:20.668Z,88.51
2017-09-14T12:34:20.640Z,88.03
2017-09-14T12:35:20.618Z,87.74
2017-09-14T12:36:20.601Z,87.46
2017-09-14T12:37:20.585Z,87.37
2017-09-14T12:38:20.559Z,87.46
2017-09-14T12:39:20.538Z,86.98
2017-09-14T12:40:20.515Z,87.08
2017-09-14T12:41:20.501Z,86.79
2017-09-14T12:42:20.481Z,86.98
2017-09-14T12:43:20.459Z,86.31
2017-09-14T12:44:20.453Z,86.79
2017-09-14T12:45:20.417Z,86.31
2017-09-14T12:46:20.398Z,86.21
2017-09-14T12:47:20.374Z,85.93
2017-09-14T12:48:20.361Z,85.83
2017-09-14T12:49:20.399Z,86.21
2017-09-14T12:50:20.312Z,86.12
2017-09-14T12:51:20.303Z,86.41
2017-09-14T12:52:20.273Z,86.6
2017-09-14T12:53:20.258Z,86.02
2017-09-14T12:54:20.236Z,86.31
2017-09-14T12:55:20.219Z,85.45
2017-09-14T12:56:20.189Z,85.6